sensor_id;sensor_type;location;lat;lon;timestamp;P1;durP1;ratioP1;P2;durP2;ratioP2
8490;SDS011;4282;49.986;7.938;2022-12-10T00:01:42;10.47;;;7.10;;
8490;SDS011;4282;49.986;7.938;2022-12-10T00:04:11;12.70;;;8.03;;
8490;SDS011;4282;49.986;7.938;2022-12-10T00:06:41;12.97;;;8.37;;
8490;SDS011;4282;49.986;7.938;2022-12-10T00:09:11;12.87;;;8.40;;
8490;SDS011;4282;49.986;7.938;2022-12-10T00:11:43;11.30;;;8.17;;
8490;SDS011;4282;49.986;7.938;2022-12-10T00:14:12;12.93;;;7.87;;
8490;SDS011;4282;49.986;7.938;2022-12-10T00:16:41;10.77;;;7.67;;
8490;SDS011;4282;49.986;7.938;2022-12-10T00:19:09;14.87;;;8.60;;
8490;SDS011;4282;49.986;7.938;2022-12-10T00:21:38;10.03;;;7.00;;
8490;SDS011;4282;49.986;7.938;2022-12-10T00:24:06;8.37;;;6.97;;
8490;SDS011;4282;49.986;7.938;2022-12-10T00:26:36;11.87;;;7.90;;
8490;SDS011;4282;49.986;7.938;2022-12-10T00:29:09;10.60;;;7.50;;
8490;SDS011;4282;49.986;7.938;2022-12-10T00:31:39;8.90;;;6.83;;
8490;SDS011;4282;49.986;7.938;2022-12-10T00:34:08;11.23;;;8.27;;
8490;SDS011;4282;49.986;7.938;2022-12-10T00:36:38;10.80;;;7.60;;
8490;SDS011;4282;49.986;7.938;2022-12-10T00:39:10;11.13;;;8.33;;
8490;SDS011;4282;49.986;7.938;2022-12-10T00:41:39;11.60;;;8.10;;
8490;SDS011;4282;49.986;7.938;2022-12-10T00:44:10;13.50;;;8.63;;
8490;SDS011;4282;49.986;7.938;2022-12-10T00:46:39;12.23;;;8.90;;
8490;SDS011;4282;49.986;7.938;2022-12-10T00:49:08;15.07;;;9.63;;
8490;SDS011;4282;49.986;7.938;2022-12-10T00:51:37;13.07;;;8.40;;
8490;SDS011;4282;49.986;7.938;2022-12-10T00:54:06;14.53;;;9.70;;
8490;SDS011;4282;49.986;7.938;2022-12-10T00:56:34;12.50;;;9.23;;
8490;SDS011;4282;49.986;7.938;2022-12-10T00:59:03;13.83;;;8.20;;
8490;SDS011;4282;49.986;7.938;2022-12-10T01:01:35;13.40;;;8.57;;
8490;SDS011;4282;49.986;7.938;2022-12-10T01:04:05;13.47;;;8.97;;
8490;SDS011;4282;49.986;7.938;2022-12-10T01:06:36;12.10;;;8.70;;
8490;SDS011;4282;49.986;7.938;2022-12-10T01:09:09;14.77;;;9.23;;
8490;SDS011;4282;49.986;7.938;2022-12-10T01:11:40;10.77;;;7.77;;
8490;SDS011;4282;49.986;7.938;2022-12-10T01:14:10;12.43;;;8.70;;
8490;SDS011;4282;49.986;7.938;2022-12-10T01:16:45;13.97;;;8.87;;
8490;SDS011;4282;49.986;7.938;2022-12-10T01:19:14;13.33;;;8.93;;
8490;SDS011;4282;49.986;7.938;2022-12-10T01:21:49;11.13;;;8.37;;
8490;SDS011;4282;49.986;7.938;2022-12-10T01:24:18;12.77;;;9.10;;
8490;SDS011;4282;49.986;7.938;2022-12-10T01:26:46;14.07;;;9.80;;
8490;SDS011;4282;49.986;7.938;2022-12-10T01:29:14;12.03;;;8.83;;
8490;SDS011;4282;49.986;7.938;2022-12-10T01:31:46;14.30;;;9.03;;
8490;SDS011;4282;49.986;7.938;2022-12-10T01:34:18;13.87;;;9.27;;
8490;SDS011;4282;49.986;7.938;2022-12-10T01:36:48;12.47;;;8.37;;
8490;SDS011;4282;49.986;7.938;2022-12-10T01:39:19;12.87;;;8.63;;
8490;SDS011;4282;49.986;7.938;2022-12-10T01:41:50;13.73;;;9.53;;
8490;SDS011;4282;49.986;7.938;2022-12-10T01:47:21;13.33;;;8.43;;
8490;SDS011;4282;49.986;7.938;2022-12-10T01:49:53;13.23;;;8.90;;
8490;SDS011;4282;49.986;7.938;2022-12-10T01:52:21;12.73;;;9.27;;
8490;SDS011;4282;49.986;7.938;2022-12-10T01:54:49;13.67;;;9.07;;
8490;SDS011;4282;49.986;7.938;2022-12-10T01:57:19;16.73;;;10.73;;
8490;SDS011;4282;49.986;7.938;2022-12-10T01:59:50;12.97;;;8.93;;
8490;SDS011;4282;49.986;7.938;2022-12-10T02:02:26;15.60;;;10.17;;
8490;SDS011;4282;49.986;7.938;2022-12-10T02:05:02;15.27;;;9.50;;
8490;SDS011;4282;49.986;7.938;2022-12-10T02:07:38;12.53;;;9.03;;
8490;SDS011;4282;49.986;7.938;2022-12-10T02:10:12;13.83;;;9.00;;
8490;SDS011;4282;49.986;7.938;2022-12-10T02:12:51;14.87;;;9.13;;
8490;SDS011;4282;49.986;7.938;2022-12-10T02:15:23;14.27;;;9.93;;
8490;SDS011;4282;49.986;7.938;2022-12-10T02:17:56;13.43;;;8.57;;
8490;SDS011;4282;49.986;7.938;2022-12-10T02:20:28;12.70;;;9.43;;
8490;SDS011;4282;49.986;7.938;2022-12-10T02:22:59;16.23;;;9.87;;
8490;SDS011;4282;49.986;7.938;2022-12-10T02:25:32;13.97;;;9.53;;
8490;SDS011;4282;49.986;7.938;2022-12-10T02:28:05;13.50;;;8.73;;
8490;SDS011;4282;49.986;7.938;2022-12-10T02:30:43;12.60;;;8.57;;
8490;SDS011;4282;49.986;7.938;2022-12-10T02:33:12;13.90;;;9.93;;
8490;SDS011;4282;49.986;7.938;2022-12-10T02:35:42;13.40;;;9.63;;
8490;SDS011;4282;49.986;7.938;2022-12-10T02:38:11;14.73;;;9.40;;
8490;SDS011;4282;49.986;7.938;2022-12-10T02:40:43;13.90;;;9.67;;
8490;SDS011;4282;49.986;7.938;2022-12-10T02:43:14;15.13;;;9.50;;
8490;SDS011;4282;49.986;7.938;2022-12-10T02:45:46;12.80;;;8.60;;
8490;SDS011;4282;49.986;7.938;2022-12-10T02:48:14;14.97;;;10.07;;
8490;SDS011;4282;49.986;7.938;2022-12-10T02:50:42;13.83;;;9.23;;
8490;SDS011;4282;49.986;7.938;2022-12-10T02:53:11;13.50;;;9.20;;
8490;SDS011;4282;49.986;7.938;2022-12-10T02:55:44;13.73;;;9.30;;
8490;SDS011;4282;49.986;7.938;2022-12-10T02:58:21;13.17;;;9.13;;
8490;SDS011;4282;49.986;7.938;2022-12-10T03:00:58;16.17;;;9.73;;
8490;SDS011;4282;49.986;7.938;2022-12-10T03:03:34;12.87;;;9.30;;
8490;SDS011;4282;49.986;7.938;2022-12-10T03:06:08;14.80;;;9.83;;
8490;SDS011;4282;49.986;7.938;2022-12-10T03:08:39;13.33;;;9.40;;
8490;SDS011;4282;49.986;7.938;2022-12-10T03:11:11;13.03;;;8.63;;
8490;SDS011;4282;49.986;7.938;2022-12-10T03:13:41;14.03;;;9.87;;
8490;SDS011;4282;49.986;7.938;2022-12-10T03:16:14;13.20;;;8.93;;
8490;SDS011;4282;49.986;7.938;2022-12-10T03:18:44;14.47;;;9.23;;
8490;SDS011;4282;49.986;7.938;2022-12-10T03:21:14;14.40;;;10.03;;
8490;SDS011;4282;49.986;7.938;2022-12-10T03:23:44;14.63;;;9.40;;
8490;SDS011;4282;49.986;7.938;2022-12-10T03:26:14;16.37;;;10.03;;
8490;SDS011;4282;49.986;7.938;2022-12-10T03:28:45;11.63;;;8.13;;
8490;SDS011;4282;49.986;7.938;2022-12-10T03:31:17;15.10;;;8.97;;
8490;SDS011;4282;49.986;7.938;2022-12-10T03:33:46;12.63;;;8.00;;
8490;SDS011;4282;49.986;7.938;2022-12-10T03:36:15;14.80;;;8.93;;
8490;SDS011;4282;49.986;7.938;2022-12-10T03:38:45;13.10;;;7.83;;
8490;SDS011;4282;49.986;7.938;2022-12-10T03:41:13;10.13;;;7.63;;
8490;SDS011;4282;49.986;7.938;2022-12-10T03:43:51;12.63;;;8.20;;
8490;SDS011;4282;49.986;7.938;2022-12-10T03:46:24;12.40;;;7.80;;
8490;SDS011;4282;49.986;7.938;2022-12-10T03:48:53;12.07;;;7.90;;
8490;SDS011;4282;49.986;7.938;2022-12-10T03:51:22;12.33;;;7.67;;
8490;SDS011;4282;49.986;7.938;2022-12-10T03:53:51;10.67;;;8.07;;
8490;SDS011;4282;49.986;7.938;2022-12-10T03:56:19;10.30;;;7.50;;
8490;SDS011;4282;49.986;7.938;2022-12-10T03:58:48;11.13;;;7.27;;
8490;SDS011;4282;49.986;7.938;2022-12-10T04:01:17;12.50;;;7.03;;
8490;SDS011;4282;49.986;7.938;2022-12-10T04:03:47;10.23;;;7.17;;
8490;SDS011;4282;49.986;7.938;2022-12-10T04:06:17;11.33;;;7.50;;
8490;SDS011;4282;49.986;7.938;2022-12-10T04:08:46;10.77;;;7.27;;
8490;SDS011;4282;49.986;7.938;2022-12-10T04:11:14;13.20;;;7.40;;
8490;SDS011;4282;49.986;7.938;2022-12-10T04:13:43;10.40;;;6.60;;
8490;SDS011;4282;49.986;7.938;2022-12-10T04:16:25;9.47;;;6.50;;
8490;SDS011;4282;49.986;7.938;2022-12-10T04:18:59;10.80;;;7.30;;
8490;SDS011;4282;49.986;7.938;2022-12-10T04:21:29;12.00;;;7.10;;
8490;SDS011;4282;49.986;7.938;2022-12-10T04:24:17;11.67;;;6.23;;
8490;SDS011;4282;49.986;7.938;2022-12-10T04:27:02;9.30;;;6.33;;
8490;SDS011;4282;49.986;7.938;2022-12-10T04:29:32;10.37;;;7.03;;
8490;SDS011;4282;49.986;7.938;2022-12-10T04:32:01;11.03;;;6.63;;
8490;SDS011;4282;49.986;7.938;2022-12-10T04:34:32;8.90;;;6.20;;
8490;SDS011;4282;49.986;7.938;2022-12-10T04:37:00;10.77;;;6.23;;
8490;SDS011;4282;49.986;7.938;2022-12-10T04:39:29;10.33;;;6.73;;
8490;SDS011;4282;49.986;7.938;2022-12-10T04:41:59;9.83;;;6.33;;
8490;SDS011;4282;49.986;7.938;2022-12-10T04:44:27;8.90;;;6.50;;
8490;SDS011;4282;49.986;7.938;2022-12-10T04:46:56;10.37;;;6.77;;
8490;SDS011;4282;49.986;7.938;2022-12-10T04:49:24;11.73;;;6.40;;
8490;SDS011;4282;49.986;7.938;2022-12-10T04:51:55;9.03;;;6.77;;
8490;SDS011;4282;49.986;7.938;2022-12-10T04:54:24;10.27;;;6.20;;
8490;SDS011;4282;49.986;7.938;2022-12-10T04:56:53;9.90;;;6.40;;
8490;SDS011;4282;49.986;7.938;2022-12-10T04:59:21;10.20;;;6.43;;
8490;SDS011;4282;49.986;7.938;2022-12-10T05:01:50;9.73;;;6.33;;
8490;SDS011;4282;49.986;7.938;2022-12-10T05:04:18;11.43;;;7.17;;
8490;SDS011;4282;49.986;7.938;2022-12-10T05:06:47;9.37;;;6.63;;
8490;SDS011;4282;49.986;7.938;2022-12-10T05:09:18;10.23;;;6.20;;
8490;SDS011;4282;49.986;7.938;2022-12-10T05:11:47;9.60;;;6.43;;
8490;SDS011;4282;49.986;7.938;2022-12-10T05:14:16;9.77;;;6.07;;
8490;SDS011;4282;49.986;7.938;2022-12-10T05:16:44;9.40;;;6.53;;
8490;SDS011;4282;49.986;7.938;2022-12-10T05:19:12;10.73;;;6.87;;
8490;SDS011;4282;49.986;7.938;2022-12-10T05:21:41;9.47;;;6.67;;
8490;SDS011;4282;49.986;7.938;2022-12-10T05:24:24;10.33;;;6.63;;
8490;SDS011;4282;49.986;7.938;2022-12-10T05:26:53;9.30;;;6.80;;
8490;SDS011;4282;49.986;7.938;2022-12-10T05:29:21;11.63;;;6.70;;
8490;SDS011;4282;49.986;7.938;2022-12-10T05:31:49;9.57;;;6.37;;
8490;SDS011;4282;49.986;7.938;2022-12-10T05:34:18;9.87;;;6.43;;
8490;SDS011;4282;49.986;7.938;2022-12-10T05:36:46;9.67;;;6.33;;
8490;SDS011;4282;49.986;7.938;2022-12-10T05:39:14;10.20;;;6.70;;
8490;SDS011;4282;49.986;7.938;2022-12-10T05:41:46;10.87;;;6.57;;
8490;SDS011;4282;49.986;7.938;2022-12-10T05:44:14;11.23;;;7.10;;
8490;SDS011;4282;49.986;7.938;2022-12-10T05:46:44;7.97;;;5.77;;
8490;SDS011;4282;49.986;7.938;2022-12-10T05:49:13;10.50;;;6.97;;
8490;SDS011;4282;49.986;7.938;2022-12-10T05:51:41;9.53;;;6.67;;
8490;SDS011;4282;49.986;7.938;2022-12-10T05:54:09;8.57;;;6.10;;
8490;SDS011;4282;49.986;7.938;2022-12-10T05:56:38;9.13;;;6.40;;
8490;SDS011;4282;49.986;7.938;2022-12-10T05:59:09;9.63;;;6.57;;
8490;SDS011;4282;49.986;7.938;2022-12-10T06:01:37;8.57;;;6.33;;
8490;SDS011;4282;49.986;7.938;2022-12-10T06:04:06;9.43;;;6.30;;
8490;SDS011;4282;49.986;7.938;2022-12-10T06:06:36;9.10;;;5.93;;
8490;SDS011;4282;49.986;7.938;2022-12-10T06:09:05;7.40;;;5.53;;
8490;SDS011;4282;49.986;7.938;2022-12-10T06:11:35;7.83;;;5.90;;
8490;SDS011;4282;49.986;7.938;2022-12-10T06:14:03;9.50;;;6.07;;
8490;SDS011;4282;49.986;7.938;2022-12-10T06:16:34;10.47;;;6.63;;
8490;SDS011;4282;49.986;7.938;2022-12-10T06:19:03;7.20;;;5.70;;
8490;SDS011;4282;49.986;7.938;2022-12-10T06:21:31;9.00;;;5.87;;
8490;SDS011;4282;49.986;7.938;2022-12-10T06:24:00;8.07;;;5.77;;
8490;SDS011;4282;49.986;7.938;2022-12-10T06:26:28;8.47;;;5.90;;
8490;SDS011;4282;49.986;7.938;2022-12-10T06:28:56;10.33;;;6.40;;
8490;SDS011;4282;49.986;7.938;2022-12-10T06:31:25;9.93;;;6.57;;
8490;SDS011;4282;49.986;7.938;2022-12-10T06:33:56;11.33;;;6.70;;
8490;SDS011;4282;49.986;7.938;2022-12-10T06:36:25;10.77;;;8.17;;
8490;SDS011;4282;49.986;7.938;2022-12-10T06:38:53;10.57;;;7.30;;
8490;SDS011;4282;49.986;7.938;2022-12-10T06:41:21;11.93;;;7.77;;
8490;SDS011;4282;49.986;7.938;2022-12-10T06:43:50;12.77;;;8.27;;
8490;SDS011;4282;49.986;7.938;2022-12-10T06:46:19;11.70;;;8.13;;
8490;SDS011;4282;49.986;7.938;2022-12-10T06:48:48;12.00;;;7.33;;
8490;SDS011;4282;49.986;7.938;2022-12-10T06:51:19;9.60;;;6.30;;
8490;SDS011;4282;49.986;7.938;2022-12-10T06:53:47;10.43;;;6.43;;
8490;SDS011;4282;49.986;7.938;2022-12-10T06:56:16;8.43;;;5.97;;
8490;SDS011;4282;49.986;7.938;2022-12-10T06:58:46;8.57;;;6.20;;
8490;SDS011;4282;49.986;7.938;2022-12-10T07:01:17;9.93;;;6.73;;
8490;SDS011;4282;49.986;7.938;2022-12-10T07:03:48;9.93;;;6.50;;
8490;SDS011;4282;49.986;7.938;2022-12-10T07:06:20;8.43;;;6.07;;
8490;SDS011;4282;49.986;7.938;2022-12-10T07:08:49;11.63;;;7.00;;
8490;SDS011;4282;49.986;7.938;2022-12-10T07:11:19;10.03;;;6.50;;
8490;SDS011;4282;49.986;7.938;2022-12-10T07:13:49;11.87;;;7.37;;
8490;SDS011;4282;49.986;7.938;2022-12-10T07:16:18;9.50;;;6.87;;
8490;SDS011;4282;49.986;7.938;2022-12-10T07:18:48;10.60;;;7.77;;
8490;SDS011;4282;49.986;7.938;2022-12-10T07:21:23;9.97;;;7.37;;
8490;SDS011;4282;49.986;7.938;2022-12-10T07:23:53;9.53;;;6.70;;
8490;SDS011;4282;49.986;7.938;2022-12-10T07:26:23;11.13;;;7.10;;
8490;SDS011;4282;49.986;7.938;2022-12-10T07:28:52;9.23;;;6.57;;
8490;SDS011;4282;49.986;7.938;2022-12-10T07:31:20;9.93;;;6.53;;
8490;SDS011;4282;49.986;7.938;2022-12-10T07:33:49;7.87;;;5.77;;
8490;SDS011;4282;49.986;7.938;2022-12-10T07:36:19;10.63;;;6.80;;
8490;SDS011;4282;49.986;7.938;2022-12-10T07:38:51;9.90;;;6.90;;
8490;SDS011;4282;49.986;7.938;2022-12-10T07:41:23;10.07;;;6.63;;
8490;SDS011;4282;49.986;7.938;2022-12-10T07:43:51;11.20;;;7.57;;
8490;SDS011;4282;49.986;7.938;2022-12-10T07:46:21;10.83;;;5.93;;
8490;SDS011;4282;49.986;7.938;2022-12-10T07:48:50;8.97;;;6.47;;
8490;SDS011;4282;49.986;7.938;2022-12-10T07:51:22;7.67;;;5.83;;
8490;SDS011;4282;49.986;7.938;2022-12-10T07:53:52;9.00;;;5.97;;
8490;SDS011;4282;49.986;7.938;2022-12-10T07:56:20;9.10;;;5.97;;
8490;SDS011;4282;49.986;7.938;2022-12-10T07:58:50;7.60;;;5.53;;
8490;SDS011;4282;49.986;7.938;2022-12-10T08:01:20;7.27;;;5.43;;
8490;SDS011;4282;49.986;7.938;2022-12-10T08:03:50;11.90;;;6.60;;
8490;SDS011;4282;49.986;7.938;2022-12-10T08:06:24;11.43;;;6.40;;
8490;SDS011;4282;49.986;7.938;2022-12-10T08:08:54;8.17;;;5.97;;
8490;SDS011;4282;49.986;7.938;2022-12-10T08:11:22;10.10;;;6.83;;
8490;SDS011;4282;49.986;7.938;2022-12-10T08:13:51;8.37;;;6.00;;
8490;SDS011;4282;49.986;7.938;2022-12-10T08:16:20;8.23;;;6.30;;
8490;SDS011;4282;49.986;7.938;2022-12-10T08:18:50;9.73;;;6.70;;
8490;SDS011;4282;49.986;7.938;2022-12-10T08:21:19;9.77;;;7.57;;
8490;SDS011;4282;49.986;7.938;2022-12-10T08:23:52;9.37;;;7.60;;
8490;SDS011;4282;49.986;7.938;2022-12-10T08:26:24;11.27;;;7.67;;
8490;SDS011;4282;49.986;7.938;2022-12-10T08:29:11;12.13;;;8.27;;
8490;SDS011;4282;49.986;7.938;2022-12-10T08:31:39;10.83;;;7.67;;
8490;SDS011;4282;49.986;7.938;2022-12-10T08:34:10;11.57;;;7.57;;
8490;SDS011;4282;49.986;7.938;2022-12-10T08:36:40;10.07;;;7.27;;
8490;SDS011;4282;49.986;7.938;2022-12-10T08:39:11;8.80;;;7.57;;
8490;SDS011;4282;49.986;7.938;2022-12-10T08:41:41;11.73;;;8.00;;
8490;SDS011;4282;49.986;7.938;2022-12-10T08:44:10;10.03;;;7.07;;
8490;SDS011;4282;49.986;7.938;2022-12-10T08:46:38;9.60;;;7.23;;
8490;SDS011;4282;49.986;7.938;2022-12-10T08:49:07;9.13;;;6.80;;
8490;SDS011;4282;49.986;7.938;2022-12-10T08:51:36;11.20;;;7.43;;
8490;SDS011;4282;49.986;7.938;2022-12-10T08:54:04;9.93;;;6.97;;
8490;SDS011;4282;49.986;7.938;2022-12-10T08:56:35;10.40;;;7.47;;
8490;SDS011;4282;49.986;7.938;2022-12-10T08:59:04;14.03;;;10.53;;
8490;SDS011;4282;49.986;7.938;2022-12-10T09:01:33;10.83;;;7.83;;
8490;SDS011;4282;49.986;7.938;2022-12-10T09:04:01;12.40;;;9.17;;
8490;SDS011;4282;49.986;7.938;2022-12-10T09:06:30;10.07;;;6.60;;
8490;SDS011;4282;49.986;7.938;2022-12-10T09:08:59;9.00;;;6.67;;
8490;SDS011;4282;49.986;7.938;2022-12-10T09:11:28;12.00;;;7.60;;
8490;SDS011;4282;49.986;7.938;2022-12-10T09:14:04;10.60;;;7.30;;
8490;SDS011;4282;49.986;7.938;2022-12-10T09:16:33;11.47;;;7.90;;
8490;SDS011;4282;49.986;7.938;2022-12-10T09:19:04;11.20;;;8.00;;
8490;SDS011;4282;49.986;7.938;2022-12-10T09:21:33;11.23;;;7.30;;
8490;SDS011;4282;49.986;7.938;2022-12-10T09:24:02;9.90;;;7.03;;
8490;SDS011;4282;49.986;7.938;2022-12-10T09:26:30;11.13;;;7.10;;
8490;SDS011;4282;49.986;7.938;2022-12-10T09:28:59;10.33;;;6.90;;
8490;SDS011;4282;49.986;7.938;2022-12-10T09:31:31;9.03;;;6.60;;
8490;SDS011;4282;49.986;7.938;2022-12-10T09:33:59;10.33;;;7.40;;
8490;SDS011;4282;49.986;7.938;2022-12-10T09:36:28;11.10;;;7.17;;
8490;SDS011;4282;49.986;7.938;2022-12-10T09:38:56;11.73;;;7.63;;
8490;SDS011;4282;49.986;7.938;2022-12-10T09:41:29;12.93;;;8.07;;
8490;SDS011;4282;49.986;7.938;2022-12-10T09:44:09;13.57;;;9.43;;
8490;SDS011;4282;49.986;7.938;2022-12-10T09:46:45;11.37;;;7.80;;
8490;SDS011;4282;49.986;7.938;2022-12-10T09:49:20;9.67;;;6.90;;
8490;SDS011;4282;49.986;7.938;2022-12-10T09:51:54;10.77;;;7.73;;
8490;SDS011;4282;49.986;7.938;2022-12-10T09:54:24;9.83;;;7.40;;
8490;SDS011;4282;49.986;7.938;2022-12-10T09:56:54;11.57;;;7.93;;
8490;SDS011;4282;49.986;7.938;2022-12-10T09:59:24;9.67;;;7.50;;
8490;SDS011;4282;49.986;7.938;2022-12-10T10:02:03;9.67;;;6.83;;
8490;SDS011;4282;49.986;7.938;2022-12-10T10:04:44;10.00;;;6.43;;
8490;SDS011;4282;49.986;7.938;2022-12-10T10:07:14;8.93;;;6.20;;
8490;SDS011;4282;49.986;7.938;2022-12-10T10:09:45;9.90;;;6.83;;
8490;SDS011;4282;49.986;7.938;2022-12-10T10:12:14;9.47;;;7.03;;
8490;SDS011;4282;49.986;7.938;2022-12-10T10:17:31;10.20;;;7.73;;
8490;SDS011;4282;49.986;7.938;2022-12-10T10:20:03;9.67;;;6.63;;
8490;SDS011;4282;49.986;7.938;2022-12-10T10:22:42;7.83;;;5.90;;
8490;SDS011;4282;49.986;7.938;2022-12-10T10:25:14;9.47;;;6.50;;
8490;SDS011;4282;49.986;7.938;2022-12-10T10:27:43;10.17;;;7.23;;
8490;SDS011;4282;49.986;7.938;2022-12-10T10:30:14;9.07;;;7.57;;
8490;SDS011;4282;49.986;7.938;2022-12-10T10:32:47;10.70;;;7.17;;
8490;SDS011;4282;49.986;7.938;2022-12-10T10:35:24;10.57;;;7.60;;
8490;SDS011;4282;49.986;7.938;2022-12-10T10:37:57;9.37;;;6.57;;
8490;SDS011;4282;49.986;7.938;2022-12-10T10:40:28;11.33;;;7.80;;
8490;SDS011;4282;49.986;7.938;2022-12-10T10:42:58;10.10;;;6.87;;
8490;SDS011;4282;49.986;7.938;2022-12-10T10:45:31;8.63;;;6.17;;
8490;SDS011;4282;49.986;7.938;2022-12-10T10:48:08;9.10;;;6.90;;
8490;SDS011;4282;49.986;7.938;2022-12-10T10:50:40;10.07;;;7.33;;
8490;SDS011;4282;49.986;7.938;2022-12-10T10:56:09;8.93;;;7.23;;
8490;SDS011;4282;49.986;7.938;2022-12-10T10:58:50;8.90;;;6.27;;
8490;SDS011;4282;49.986;7.938;2022-12-10T11:01:22;11.07;;;7.40;;
8490;SDS011;4282;49.986;7.938;2022-12-10T11:03:56;8.87;;;6.57;;
8490;SDS011;4282;49.986;7.938;2022-12-10T11:06:26;8.73;;;6.67;;
8490;SDS011;4282;49.986;7.938;2022-12-10T11:08:56;8.90;;;7.13;;
8490;SDS011;4282;49.986;7.938;2022-12-10T11:11:31;9.13;;;7.47;;
8490;SDS011;4282;49.986;7.938;2022-12-10T11:14:12;8.57;;;6.87;;
8490;SDS011;4282;49.986;7.938;2022-12-10T11:16:50;8.50;;;6.27;;
8490;SDS011;4282;49.986;7.938;2022-12-10T11:19:31;8.87;;;6.67;;
8490;SDS011;4282;49.986;7.938;2022-12-10T11:22:14;8.10;;;6.50;;
8490;SDS011;4282;49.986;7.938;2022-12-10T11:24:45;8.77;;;6.70;;
8490;SDS011;4282;49.986;7.938;2022-12-10T11:27:15;9.57;;;7.00;;
8490;SDS011;4282;49.986;7.938;2022-12-10T11:29:49;7.80;;;6.37;;
8490;SDS011;4282;49.986;7.938;2022-12-10T11:32:29;7.73;;;5.10;;
8490;SDS011;4282;49.986;7.938;2022-12-10T11:35:10;8.13;;;6.57;;
8490;SDS011;4282;49.986;7.938;2022-12-10T11:37:42;6.77;;;5.50;;
8490;SDS011;4282;49.986;7.938;2022-12-10T11:40:23;7.97;;;5.60;;
8490;SDS011;4282;49.986;7.938;2022-12-10T11:43:01;9.00;;;6.20;;
8490;SDS011;4282;49.986;7.938;2022-12-10T11:45:40;8.00;;;6.40;;
8490;SDS011;4282;49.986;7.938;2022-12-10T11:48:15;7.77;;;5.87;;
8490;SDS011;4282;49.986;7.938;2022-12-10T11:50:59;7.80;;;6.30;;
8490;SDS011;4282;49.986;7.938;2022-12-10T11:56:24;8.97;;;6.33;;
8490;SDS011;4282;49.986;7.938;2022-12-10T11:58:57;8.53;;;6.10;;
8490;SDS011;4282;49.986;7.938;2022-12-10T12:01:35;8.07;;;5.57;;
8490;SDS011;4282;49.986;7.938;2022-12-10T12:10:16;8.23;;;5.33;;
8490;SDS011;4282;49.986;7.938;2022-12-10T12:12:52;7.20;;;5.73;;
8490;SDS011;4282;49.986;7.938;2022-12-10T12:15:25;6.67;;;5.33;;
8490;SDS011;4282;49.986;7.938;2022-12-10T12:17:58;7.33;;;5.27;;
8490;SDS011;4282;49.986;7.938;2022-12-10T12:20:55;5.50;;;4.90;;
8490;SDS011;4282;49.986;7.938;2022-12-10T12:23:50;7.63;;;5.17;;
8490;SDS011;4282;49.986;7.938;2022-12-10T12:26:30;6.90;;;5.60;;
8490;SDS011;4282;49.986;7.938;2022-12-10T12:29:13;7.43;;;5.60;;
8490;SDS011;4282;49.986;7.938;2022-12-10T12:31:56;7.27;;;5.70;;
8490;SDS011;4282;49.986;7.938;2022-12-10T12:34:49;8.43;;;6.47;;
8490;SDS011;4282;49.986;7.938;2022-12-10T12:37:26;7.27;;;6.30;;
8490;SDS011;4282;49.986;7.938;2022-12-10T12:40:08;7.40;;;6.10;;
8490;SDS011;4282;49.986;7.938;2022-12-10T12:42:49;7.97;;;6.13;;
8490;SDS011;4282;49.986;7.938;2022-12-10T12:45:39;7.07;;;5.30;;
8490;SDS011;4282;49.986;7.938;2022-12-10T12:48:22;8.47;;;5.97;;
8490;SDS011;4282;49.986;7.938;2022-12-10T12:51:00;7.77;;;5.23;;
8490;SDS011;4282;49.986;7.938;2022-12-10T12:53:31;9.20;;;5.70;;
8490;SDS011;4282;49.986;7.938;2022-12-10T12:56:07;8.10;;;5.63;;
8490;SDS011;4282;49.986;7.938;2022-12-10T12:58:55;8.07;;;5.40;;
8490;SDS011;4282;49.986;7.938;2022-12-10T13:01:54;8.53;;;6.47;;
8490;SDS011;4282;49.986;7.938;2022-12-10T13:04:35;7.30;;;5.77;;
8490;SDS011;4282;49.986;7.938;2022-12-10T15:57:58;18.47;;;10.20;;
8490;SDS011;4282;49.986;7.938;2022-12-10T16:00:27;19.10;;;10.87;;
8490;SDS011;4282;49.986;7.938;2022-12-10T16:03:18;17.27;;;10.40;;
8490;SDS011;4282;49.986;7.938;2022-12-10T16:08:50;15.53;;;9.67;;
8490;SDS011;4282;49.986;7.938;2022-12-10T16:27:43;17.70;;;11.57;;
8490;SDS011;4282;49.986;7.938;2022-12-10T16:40:29;18.50;;;11.87;;
8490;SDS011;4282;49.986;7.938;2022-12-10T16:42:57;17.77;;;10.93;;
8490;SDS011;4282;49.986;7.938;2022-12-10T16:45:27;17.97;;;10.97;;
8490;SDS011;4282;49.986;7.938;2022-12-10T16:47:58;14.90;;;10.40;;
8490;SDS011;4282;49.986;7.938;2022-12-10T16:50:27;15.90;;;10.73;;
8490;SDS011;4282;49.986;7.938;2022-12-10T16:52:55;21.77;;;12.13;;
8490;SDS011;4282;49.986;7.938;2022-12-10T16:55:25;17.70;;;11.17;;
8490;SDS011;4282;49.986;7.938;2022-12-10T16:57:56;17.30;;;11.20;;
8490;SDS011;4282;49.986;7.938;2022-12-10T17:00:24;16.43;;;10.30;;
8490;SDS011;4282;49.986;7.938;2022-12-10T17:02:53;16.27;;;10.43;;
8490;SDS011;4282;49.986;7.938;2022-12-10T17:05:28;19.23;;;11.67;;
8490;SDS011;4282;49.986;7.938;2022-12-10T17:07:57;17.27;;;11.70;;
8490;SDS011;4282;49.986;7.938;2022-12-10T17:10:26;20.17;;;12.13;;
8490;SDS011;4282;49.986;7.938;2022-12-10T17:13:09;19.03;;;12.23;;
8490;SDS011;4282;49.986;7.938;2022-12-10T17:15:38;17.67;;;12.07;;
8490;SDS011;4282;49.986;7.938;2022-12-10T17:18:08;18.47;;;12.40;;
8490;SDS011;4282;49.986;7.938;2022-12-10T17:20:36;20.70;;;13.90;;
8490;SDS011;4282;49.986;7.938;2022-12-10T17:23:04;17.63;;;11.43;;
8490;SDS011;4282;49.986;7.938;2022-12-10T17:25:32;19.83;;;12.67;;
8490;SDS011;4282;49.986;7.938;2022-12-10T17:28:01;19.37;;;12.13;;
8490;SDS011;4282;49.986;7.938;2022-12-10T17:30:32;19.33;;;12.33;;
8490;SDS011;4282;49.986;7.938;2022-12-10T17:33:00;18.70;;;12.47;;
8490;SDS011;4282;49.986;7.938;2022-12-10T17:35:29;22.70;;;14.37;;
8490;SDS011;4282;49.986;7.938;2022-12-10T17:37:57;20.50;;;13.20;;
8490;SDS011;4282;49.986;7.938;2022-12-10T17:40:25;19.33;;;12.17;;
8490;SDS011;4282;49.986;7.938;2022-12-10T17:42:53;19.63;;;12.80;;
8490;SDS011;4282;49.986;7.938;2022-12-10T17:45:22;19.93;;;12.43;;
8490;SDS011;4282;49.986;7.938;2022-12-10T17:47:52;20.93;;;13.90;;
8490;SDS011;4282;49.986;7.938;2022-12-10T17:50:23;19.53;;;12.67;;
8490;SDS011;4282;49.986;7.938;2022-12-10T17:52:54;21.67;;;13.50;;
8490;SDS011;4282;49.986;7.938;2022-12-10T17:55:23;24.50;;;14.77;;
8490;SDS011;4282;49.986;7.938;2022-12-10T17:57:51;25.70;;;15.17;;
8490;SDS011;4282;49.986;7.938;2022-12-10T18:00:22;25.37;;;15.47;;
8490;SDS011;4282;49.986;7.938;2022-12-10T18:02:52;24.13;;;15.53;;
8490;SDS011;4282;49.986;7.938;2022-12-10T18:05:21;23.23;;;14.47;;
8490;SDS011;4282;49.986;7.938;2022-12-10T18:07:51;22.97;;;14.70;;
8490;SDS011;4282;49.986;7.938;2022-12-10T18:10:21;24.43;;;15.23;;
8490;SDS011;4282;49.986;7.938;2022-12-10T18:12:50;25.17;;;14.67;;
8490;SDS011;4282;49.986;7.938;2022-12-10T18:15:20;25.27;;;16.50;;
8490;SDS011;4282;49.986;7.938;2022-12-10T18:17:49;23.10;;;15.77;;
8490;SDS011;4282;49.986;7.938;2022-12-10T18:20:21;24.37;;;14.70;;
8490;SDS011;4282;49.986;7.938;2022-12-10T18:22:51;22.07;;;14.00;;
8490;SDS011;4282;49.986;7.938;2022-12-10T18:25:20;18.73;;;12.87;;
8490;SDS011;4282;49.986;7.938;2022-12-10T18:27:49;19.50;;;13.03;;
8490;SDS011;4282;49.986;7.938;2022-12-10T18:30:18;21.77;;;13.93;;
8490;SDS011;4282;49.986;7.938;2022-12-10T18:32:48;23.90;;;15.57;;
8490;SDS011;4282;49.986;7.938;2022-12-10T18:35:17;28.63;;;17.23;;
8490;SDS011;4282;49.986;7.938;2022-12-10T18:37:48;34.10;;;19.90;;
8490;SDS011;4282;49.986;7.938;2022-12-10T18:40:18;34.33;;;20.60;;
8490;SDS011;4282;49.986;7.938;2022-12-10T18:42:47;25.27;;;15.83;;
8490;SDS011;4282;49.986;7.938;2022-12-10T18:45:17;25.57;;;14.23;;
8490;SDS011;4282;49.986;7.938;2022-12-10T18:47:45;24.40;;;14.60;;
8490;SDS011;4282;49.986;7.938;2022-12-10T18:50:16;25.13;;;15.83;;
8490;SDS011;4282;49.986;7.938;2022-12-10T18:52:49;23.57;;;15.10;;
8490;SDS011;4282;49.986;7.938;2022-12-10T18:55:18;19.70;;;13.93;;
8490;SDS011;4282;49.986;7.938;2022-12-10T18:57:48;20.70;;;13.83;;
8490;SDS011;4282;49.986;7.938;2022-12-10T19:00:18;19.50;;;12.87;;
8490;SDS011;4282;49.986;7.938;2022-12-10T19:02:47;19.47;;;12.67;;
8490;SDS011;4282;49.986;7.938;2022-12-10T19:05:16;18.00;;;13.53;;
8490;SDS011;4282;49.986;7.938;2022-12-10T19:07:47;20.20;;;13.63;;